Terminal Aerodrome Forecast
Issued by NWS

Home | Current Version | Previous Version | Text Only | Print | Product List | Glossary On
Versions: 1 2 3 4 5 6 7 8 9 10 11 12 13
000
FTUS41 KCAR 282325
TAFBHB
TAF
KBHB 282325Z 2900/2924 16006KT P6SM OVC100
      TEMPO 2903/2907 -SHRA OVC005
     FM290700 20010KT P6SM OVC005
     FM291200 23010KT P6SM OVC008
     FM291400 26009KT P6SM SCT025
     FM292000 30010KT P6SM FEW070=

USA.gov is the U.S. government's official web portal to all federal, state and local government web resources and services.